sensor_id;sensor_type;location;lat;lon;timestamp;temperature;humidity
39997;DHT22;25688;52.338;21.072;2022-08-03T00:01:20;13.40;99.90
39997;DHT22;25688;52.338;21.072;2022-08-03T00:03:46;13.30;99.90
39997;DHT22;25688;52.338;21.072;2022-08-03T00:06:11;13.30;99.90
39997;DHT22;25688;52.338;21.072;2022-08-03T00:08:37;13.30;99.90
39997;DHT22;25688;52.338;21.072;2022-08-03T00:11:03;13.40;99.90
39997;DHT22;25688;52.338;21.072;2022-08-03T00:13:29;13.40;99.90
39997;DHT22;25688;52.338;21.072;2022-08-03T00:15:54;13.30;99.90
39997;DHT22;25688;52.338;21.072;2022-08-03T00:18:20;13.30;99.90
39997;DHT22;25688;52.338;21.072;2022-08-03T00:20:46;13.20;99.90
39997;DHT22;25688;52.338;21.072;2022-08-03T00:23:12;13.10;99.90
39997;DHT22;25688;52.338;21.072;2022-08-03T00:25:38;13.10;99.90
39997;DHT22;25688;52.338;21.072;2022-08-03T00:28:04;13.10;99.90
39997;DHT22;25688;52.338;21.072;2022-08-03T00:30:31;13.10;99.90
39997;DHT22;25688;52.338;21.072;2022-08-03T00:32:57;13.10;99.90
39997;DHT22;25688;52.338;21.072;2022-08-03T00:35:24;13.10;99.90
39997;DHT22;25688;52.338;21.072;2022-08-03T00:37:50;13.10;99.90
39997;DHT22;25688;52.338;21.072;2022-08-03T00:40:19;13.00;99.90
39997;DHT22;25688;52.338;21.072;2022-08-03T00:42:53;13.00;99.90
39997;DHT22;25688;52.338;21.072;2022-08-03T00:45:28;13.00;99.90
39997;DHT22;25688;52.338;21.072;2022-08-03T00:47:54;12.90;99.90
39997;DHT22;25688;52.338;21.072;2022-08-03T00:50:22;12.80;99.90
39997;DHT22;25688;52.338;21.072;2022-08-03T00:52:49;12.80;99.90
39997;DHT22;25688;52.338;21.072;2022-08-03T00:55:16;12.80;99.90
39997;DHT22;25688;52.338;21.072;2022-08-03T00:57:42;12.90;99.90
39997;DHT22;25688;52.338;21.072;2022-08-03T01:00:09;13.00;99.90
39997;DHT22;25688;52.338;21.072;2022-08-03T01:02:37;13.00;99.90
39997;DHT22;25688;52.338;21.072;2022-08-03T01:05:04;13.00;99.90
39997;DHT22;25688;52.338;21.072;2022-08-03T01:10:49;13.20;99.90
39997;DHT22;25688;52.338;21.072;2022-08-03T01:16:46;13.10;99.90
39997;DHT22;25688;52.338;21.072;2022-08-03T01:30:32;12.80;99.90
39997;DHT22;25688;52.338;21.072;2022-08-03T01:33:03;12.60;99.90
39997;DHT22;25688;52.338;21.072;2022-08-03T01:35:46;12.70;99.90
39997;DHT22;25688;52.338;21.072;2022-08-03T01:38:23;12.60;99.90
39997;DHT22;25688;52.338;21.072;2022-08-03T01:40:51;12.70;99.90
39997;DHT22;25688;52.338;21.072;2022-08-03T01:43:20;12.70;99.90
39997;DHT22;25688;52.338;21.072;2022-08-03T01:45:48;12.70;99.90
39997;DHT22;25688;52.338;21.072;2022-08-03T01:48:16;12.70;99.90
39997;DHT22;25688;52.338;21.072;2022-08-03T01:54:04;12.80;99.90
39997;DHT22;25688;52.338;21.072;2022-08-03T01:56:30;12.70;99.90
39997;DHT22;25688;52.338;21.072;2022-08-03T01:58:57;12.70;99.90
39997;DHT22;25688;52.338;21.072;2022-08-03T02:01:26;12.70;99.90
39997;DHT22;25688;52.338;21.072;2022-08-03T02:03:54;12.60;99.90
39997;DHT22;25688;52.338;21.072;2022-08-03T02:06:21;12.60;99.90
39997;DHT22;25688;52.338;21.072;2022-08-03T02:08:50;12.60;99.90
39997;DHT22;25688;52.338;21.072;2022-08-03T02:11:17;12.60;99.90
39997;DHT22;25688;52.338;21.072;2022-08-03T02:13:44;12.50;99.90
39997;DHT22;25688;52.338;21.072;2022-08-03T02:16:12;12.50;99.90
39997;DHT22;25688;52.338;21.072;2022-08-03T02:18:40;12.50;99.90
39997;DHT22;25688;52.338;21.072;2022-08-03T02:21:08;12.40;99.90
39997;DHT22;25688;52.338;21.072;2022-08-03T02:23:36;12.30;99.90
39997;DHT22;25688;52.338;21.072;2022-08-03T02:26:04;12.30;99.90
39997;DHT22;25688;52.338;21.072;2022-08-03T02:28:34;12.20;99.90
39997;DHT22;25688;52.338;21.072;2022-08-03T02:31:08;12.20;99.90
39997;DHT22;25688;52.338;21.072;2022-08-03T02:33:40;12.10;99.90
39997;DHT22;25688;52.338;21.072;2022-08-03T02:36:07;12.10;99.90
39997;DHT22;25688;52.338;21.072;2022-08-03T02:38:35;12.10;99.90
39997;DHT22;25688;52.338;21.072;2022-08-03T02:41:06;12.10;99.90
39997;DHT22;25688;52.338;21.072;2022-08-03T02:43:34;12.10;99.90
39997;DHT22;25688;52.338;21.072;2022-08-03T02:46:00;12.10;99.90
39997;DHT22;25688;52.338;21.072;2022-08-03T02:48:32;12.20;99.90
39997;DHT22;25688;52.338;21.072;2022-08-03T02:54:11;12.30;99.90
39997;DHT22;25688;52.338;21.072;2022-08-03T02:56:40;12.30;99.90
39997;DHT22;25688;52.338;21.072;2022-08-03T02:59:08;12.30;99.90
39997;DHT22;25688;52.338;21.072;2022-08-03T03:04:21;12.30;99.90
39997;DHT22;25688;52.338;21.072;2022-08-03T03:07:15;12.40;99.90
39997;DHT22;25688;52.338;21.072;2022-08-03T03:09:42;12.40;99.90
39997;DHT22;25688;52.338;21.072;2022-08-03T03:12:24;12.30;99.90
39997;DHT22;25688;52.338;21.072;2022-08-03T03:14:50;12.30;99.90
39997;DHT22;25688;52.338;21.072;2022-08-03T03:17:16;12.30;99.90
39997;DHT22;25688;52.338;21.072;2022-08-03T03:19:43;12.40;99.90
39997;DHT22;25688;52.338;21.072;2022-08-03T03:22:10;12.40;99.90
39997;DHT22;25688;52.338;21.072;2022-08-03T03:24:37;12.50;99.90
39997;DHT22;25688;52.338;21.072;2022-08-03T03:27:04;12.60;99.90
39997;DHT22;25688;52.338;21.072;2022-08-03T03:29:31;12.70;99.90
39997;DHT22;25688;52.338;21.072;2022-08-03T03:31:57;12.70;99.90
39997;DHT22;25688;52.338;21.072;2022-08-03T03:34:23;12.80;99.90
39997;DHT22;25688;52.338;21.072;2022-08-03T03:36:49;12.90;99.90
39997;DHT22;25688;52.338;21.072;2022-08-03T03:39:15;12.90;99.90
39997;DHT22;25688;52.338;21.072;2022-08-03T03:41:41;13.00;99.90
39997;DHT22;25688;52.338;21.072;2022-08-03T03:44:07;13.10;99.90
39997;DHT22;25688;52.338;21.072;2022-08-03T03:46:32;13.20;99.90
39997;DHT22;25688;52.338;21.072;2022-08-03T03:48:58;13.20;99.90
39997;DHT22;25688;52.338;21.072;2022-08-03T03:51:24;13.30;99.90
39997;DHT22;25688;52.338;21.072;2022-08-03T03:53:57;13.30;99.90
39997;DHT22;25688;52.338;21.072;2022-08-03T03:56:23;13.40;99.90
39997;DHT22;25688;52.338;21.072;2022-08-03T03:58:49;13.40;99.90
39997;DHT22;25688;52.338;21.072;2022-08-03T04:01:15;13.50;99.90
39997;DHT22;25688;52.338;21.072;2022-08-03T04:03:41;13.50;99.90
39997;DHT22;25688;52.338;21.072;2022-08-03T04:06:07;13.60;99.90
39997;DHT22;25688;52.338;21.072;2022-08-03T04:08:51;13.70;99.90
39997;DHT22;25688;52.338;21.072;2022-08-03T04:14:12;13.90;99.90
39997;DHT22;25688;52.338;21.072;2022-08-03T04:16:43;14.00;99.90
39997;DHT22;25688;52.338;21.072;2022-08-03T04:19:29;14.10;99.90
39997;DHT22;25688;52.338;21.072;2022-08-03T04:21:59;14.20;99.90
39997;DHT22;25688;52.338;21.072;2022-08-03T04:24:32;14.40;99.90
39997;DHT22;25688;52.338;21.072;2022-08-03T04:27:01;14.60;99.90
39997;DHT22;25688;52.338;21.072;2022-08-03T04:29:32;14.80;99.90
39997;DHT22;25688;52.338;21.072;2022-08-03T04:31:58;14.90;99.90
39997;DHT22;25688;52.338;21.072;2022-08-03T04:34:26;15.10;99.90
39997;DHT22;25688;52.338;21.072;2022-08-03T04:36:56;15.40;99.90
39997;DHT22;25688;52.338;21.072;2022-08-03T04:39:23;15.60;99.90
39997;DHT22;25688;52.338;21.072;2022-08-03T04:41:53;15.80;99.90
39997;DHT22;25688;52.338;21.072;2022-08-03T04:44:21;16.00;99.90
39997;DHT22;25688;52.338;21.072;2022-08-03T04:46:49;16.20;99.90
39997;DHT22;25688;52.338;21.072;2022-08-03T04:49:16;16.50;99.90
39997;DHT22;25688;52.338;21.072;2022-08-03T04:51:42;16.70;99.90
39997;DHT22;25688;52.338;21.072;2022-08-03T04:54:12;17.00;99.90
39997;DHT22;25688;52.338;21.072;2022-08-03T04:56:41;17.10;99.90
39997;DHT22;25688;52.338;21.072;2022-08-03T04:59:09;17.30;99.90
39997;DHT22;25688;52.338;21.072;2022-08-03T05:01:35;17.50;99.90
39997;DHT22;25688;52.338;21.072;2022-08-03T05:04:01;17.80;99.90
39997;DHT22;25688;52.338;21.072;2022-08-03T05:06:27;18.00;99.90
39997;DHT22;25688;52.338;21.072;2022-08-03T05:08:52;18.20;99.90
39997;DHT22;25688;52.338;21.072;2022-08-03T05:11:18;18.30;99.90
39997;DHT22;25688;52.338;21.072;2022-08-03T05:13:44;18.50;99.90
39997;DHT22;25688;52.338;21.072;2022-08-03T05:16:11;18.50;99.90
39997;DHT22;25688;52.338;21.072;2022-08-03T05:18:38;18.70;99.90
39997;DHT22;25688;52.338;21.072;2022-08-03T05:21:04;18.80;99.90
39997;DHT22;25688;52.338;21.072;2022-08-03T05:23:30;19.00;99.90
39997;DHT22;25688;52.338;21.072;2022-08-03T05:25:56;19.10;99.90
39997;DHT22;25688;52.338;21.072;2022-08-03T05:28:22;19.30;99.90
39997;DHT22;25688;52.338;21.072;2022-08-03T05:30:48;19.40;99.90
39997;DHT22;25688;52.338;21.072;2022-08-03T05:33:16;19.50;99.90
39997;DHT22;25688;52.338;21.072;2022-08-03T05:35:42;19.50;99.90
39997;DHT22;25688;52.338;21.072;2022-08-03T05:38:08;19.50;99.90
39997;DHT22;25688;52.338;21.072;2022-08-03T05:40:34;19.60;99.90
39997;DHT22;25688;52.338;21.072;2022-08-03T05:43:00;19.60;99.90
39997;DHT22;25688;52.338;21.072;2022-08-03T05:45:26;19.50;99.90
39997;DHT22;25688;52.338;21.072;2022-08-03T05:47:52;19.60;99.90
39997;DHT22;25688;52.338;21.072;2022-08-03T05:50:19;19.60;99.90
39997;DHT22;25688;52.338;21.072;2022-08-03T05:52:45;19.70;99.90
39997;DHT22;25688;52.338;21.072;2022-08-03T05:55:11;19.70;99.90
39997;DHT22;25688;52.338;21.072;2022-08-03T05:57:38;19.70;99.90
39997;DHT22;25688;52.338;21.072;2022-08-03T06:00:06;19.60;99.90
39997;DHT22;25688;52.338;21.072;2022-08-03T06:02:32;19.60;99.90
39997;DHT22;25688;52.338;21.072;2022-08-03T06:04:58;19.80;99.90
39997;DHT22;25688;52.338;21.072;2022-08-03T06:07:24;19.80;99.90
39997;DHT22;25688;52.338;21.072;2022-08-03T06:09:50;19.90;99.90
39997;DHT22;25688;52.338;21.072;2022-08-03T06:12:16;19.90;99.90
39997;DHT22;25688;52.338;21.072;2022-08-03T06:14:41;19.90;99.90
39997;DHT22;25688;52.338;21.072;2022-08-03T06:17:07;20.00;99.90
39997;DHT22;25688;52.338;21.072;2022-08-03T06:19:33;19.90;99.90
39997;DHT22;25688;52.338;21.072;2022-08-03T06:21:58;19.90;99.90
39997;DHT22;25688;52.338;21.072;2022-08-03T06:24:24;19.90;99.90
39997;DHT22;25688;52.338;21.072;2022-08-03T06:26:50;19.90;99.90
39997;DHT22;25688;52.338;21.072;2022-08-03T06:29:16;19.80;99.90
39997;DHT22;25688;52.338;21.072;2022-08-03T06:31:41;19.80;99.90
39997;DHT22;25688;52.338;21.072;2022-08-03T06:34:07;19.80;99.90
39997;DHT22;25688;52.338;21.072;2022-08-03T06:36:33;19.70;99.90
39997;DHT22;25688;52.338;21.072;2022-08-03T06:39:17;19.70;99.90
39997;DHT22;25688;52.338;21.072;2022-08-03T06:41:44;19.70;99.90
39997;DHT22;25688;52.338;21.072;2022-08-03T06:44:10;19.60;99.90
39997;DHT22;25688;52.338;21.072;2022-08-03T06:46:36;19.70;99.90
39997;DHT22;25688;52.338;21.072;2022-08-03T06:49:01;19.60;99.90
39997;DHT22;25688;52.338;21.072;2022-08-03T06:51:48;19.60;99.90
39997;DHT22;25688;52.338;21.072;2022-08-03T06:54:16;19.60;99.90
39997;DHT22;25688;52.338;21.072;2022-08-03T06:56:42;19.60;99.90
39997;DHT22;25688;52.338;21.072;2022-08-03T06:59:08;19.50;99.90
39997;DHT22;25688;52.338;21.072;2022-08-03T07:01:34;19.50;99.90
39997;DHT22;25688;52.338;21.072;2022-08-03T07:04:09;19.60;99.90
39997;DHT22;25688;52.338;21.072;2022-08-03T07:06:36;19.60;99.90
39997;DHT22;25688;52.338;21.072;2022-08-03T07:09:02;19.70;99.90
39997;DHT22;25688;52.338;21.072;2022-08-03T07:11:28;19.80;99.90
39997;DHT22;25688;52.338;21.072;2022-08-03T07:13:54;19.90;99.90
39997;DHT22;25688;52.338;21.072;2022-08-03T07:16:21;19.90;99.90
39997;DHT22;25688;52.338;21.072;2022-08-03T07:18:46;20.00;99.90
39997;DHT22;25688;52.338;21.072;2022-08-03T07:21:12;20.10;99.90
39997;DHT22;25688;52.338;21.072;2022-08-03T07:23:38;20.20;99.90
39997;DHT22;25688;52.338;21.072;2022-08-03T07:26:04;20.40;99.90
39997;DHT22;25688;52.338;21.072;2022-08-03T07:28:30;20.50;99.90
39997;DHT22;25688;52.338;21.072;2022-08-03T07:30:55;20.50;99.90
39997;DHT22;25688;52.338;21.072;2022-08-03T07:33:21;20.60;99.90
39997;DHT22;25688;52.338;21.072;2022-08-03T07:35:47;20.60;99.90
39997;DHT22;25688;52.338;21.072;2022-08-03T07:38:13;20.50;99.90
39997;DHT22;25688;52.338;21.072;2022-08-03T07:40:38;20.50;99.90
39997;DHT22;25688;52.338;21.072;2022-08-03T07:43:04;20.50;99.90
39997;DHT22;25688;52.338;21.072;2022-08-03T07:45:30;20.60;99.90
39997;DHT22;25688;52.338;21.072;2022-08-03T07:47:56;20.60;99.90
39997;DHT22;25688;52.338;21.072;2022-08-03T07:50:22;20.50;99.90
39997;DHT22;25688;52.338;21.072;2022-08-03T07:52:51;20.60;99.90
39997;DHT22;25688;52.338;21.072;2022-08-03T07:55:21;20.60;99.90
39997;DHT22;25688;52.338;21.072;2022-08-03T07:57:58;20.70;99.90
39997;DHT22;25688;52.338;21.072;2022-08-03T08:00:24;20.80;99.90
39997;DHT22;25688;52.338;21.072;2022-08-03T08:02:49;20.80;99.90
39997;DHT22;25688;52.338;21.072;2022-08-03T08:05:16;20.80;99.90
39997;DHT22;25688;52.338;21.072;2022-08-03T08:07:42;20.90;99.90
39997;DHT22;25688;52.338;21.072;2022-08-03T08:10:08;21.00;99.90
39997;DHT22;25688;52.338;21.072;2022-08-03T08:12:38;21.10;99.90
39997;DHT22;25688;52.338;21.072;2022-08-03T08:15:07;21.40;99.90
39997;DHT22;25688;52.338;21.072;2022-08-03T08:17:51;21.60;99.90
39997;DHT22;25688;52.338;21.072;2022-08-03T08:20:22;21.80;99.90
39997;DHT22;25688;52.338;21.072;2022-08-03T08:22:49;22.00;99.90
39997;DHT22;25688;52.338;21.072;2022-08-03T08:25:15;22.30;99.90
39997;DHT22;25688;52.338;21.072;2022-08-03T08:27:42;22.40;99.90
39997;DHT22;25688;52.338;21.072;2022-08-03T08:30:08;22.70;99.90
39997;DHT22;25688;52.338;21.072;2022-08-03T08:32:34;22.90;99.90
39997;DHT22;25688;52.338;21.072;2022-08-03T08:35:03;23.10;99.90
39997;DHT22;25688;52.338;21.072;2022-08-03T08:37:29;23.20;99.90
39997;DHT22;25688;52.338;21.072;2022-08-03T08:39:55;23.30;99.90
39997;DHT22;25688;52.338;21.072;2022-08-03T08:42:21;23.30;99.90
39997;DHT22;25688;52.338;21.072;2022-08-03T08:44:47;23.50;99.90
39997;DHT22;25688;52.338;21.072;2022-08-03T08:47:13;23.60;99.90
39997;DHT22;25688;52.338;21.072;2022-08-03T08:49:40;23.60;99.90
39997;DHT22;25688;52.338;21.072;2022-08-03T08:52:15;23.80;99.90
39997;DHT22;25688;52.338;21.072;2022-08-03T08:54:41;23.90;99.90
39997;DHT22;25688;52.338;21.072;2022-08-03T08:57:09;23.90;99.90
39997;DHT22;25688;52.338;21.072;2022-08-03T08:59:36;24.00;99.90
39997;DHT22;25688;52.338;21.072;2022-08-03T09:02:01;24.10;99.90
39997;DHT22;25688;52.338;21.072;2022-08-03T09:04:28;24.30;99.90
39997;DHT22;25688;52.338;21.072;2022-08-03T09:09:30;24.40;99.90
39997;DHT22;25688;52.338;21.072;2022-08-03T09:15:38;24.40;99.90
39997;DHT22;25688;52.338;21.072;2022-08-03T09:18:04;24.50;99.90
39997;DHT22;25688;52.338;21.072;2022-08-03T09:20:31;24.60;99.90
39997;DHT22;25688;52.338;21.072;2022-08-03T09:23:15;24.60;99.90
39997;DHT22;25688;52.338;21.072;2022-08-03T09:25:42;24.60;99.90
39997;DHT22;25688;52.338;21.072;2022-08-03T09:28:13;24.50;99.90
39997;DHT22;25688;52.338;21.072;2022-08-03T09:30:41;24.60;99.90
39997;DHT22;25688;52.338;21.072;2022-08-03T09:33:09;24.60;99.90
39997;DHT22;25688;52.338;21.072;2022-08-03T09:35:46;24.70;99.90
39997;DHT22;25688;52.338;21.072;2022-08-03T09:38:18;24.80;99.90
39997;DHT22;25688;52.338;21.072;2022-08-03T09:40:48;24.90;99.90
39997;DHT22;25688;52.338;21.072;2022-08-03T09:43:14;25.00;99.90
39997;DHT22;25688;52.338;21.072;2022-08-03T09:45:40;25.10;99.90
39997;DHT22;25688;52.338;21.072;2022-08-03T09:48:26;25.20;99.90
39997;DHT22;25688;52.338;21.072;2022-08-03T09:50:58;25.30;99.90
39997;DHT22;25688;52.338;21.072;2022-08-03T09:53:25;25.50;99.90
39997;DHT22;25688;52.338;21.072;2022-08-03T09:55:58;25.50;99.90
39997;DHT22;25688;52.338;21.072;2022-08-03T09:58:27;25.50;99.90
39997;DHT22;25688;52.338;21.072;2022-08-03T10:01:04;25.50;99.90
39997;DHT22;25688;52.338;21.072;2022-08-03T10:03:36;25.60;99.90
39997;DHT22;25688;52.338;21.072;2022-08-03T10:06:19;25.80;99.90
39997;DHT22;25688;52.338;21.072;2022-08-03T10:11:39;26.20;99.90
39997;DHT22;25688;52.338;21.072;2022-08-03T10:14:07;26.40;99.90
39997;DHT22;25688;52.338;21.072;2022-08-03T10:16:37;26.40;99.90
39997;DHT22;25688;52.338;21.072;2022-08-03T10:19:07;26.40;99.90
39997;DHT22;25688;52.338;21.072;2022-08-03T10:21:37;26.40;99.90
39997;DHT22;25688;52.338;21.072;2022-08-03T10:24:05;26.50;99.90
39997;DHT22;25688;52.338;21.072;2022-08-03T10:26:35;26.50;99.90
39997;DHT22;25688;52.338;21.072;2022-08-03T10:29:10;26.50;99.90
39997;DHT22;25688;52.338;21.072;2022-08-03T10:31:43;26.40;99.90
39997;DHT22;25688;52.338;21.072;2022-08-03T10:34:22;26.50;99.90
39997;DHT22;25688;52.338;21.072;2022-08-03T10:36:49;26.50;99.90
39997;DHT22;25688;52.338;21.072;2022-08-03T10:39:18;26.50;99.90
39997;DHT22;25688;52.338;21.072;2022-08-03T10:41:47;26.60;99.90
39997;DHT22;25688;52.338;21.072;2022-08-03T10:44:19;26.80;99.90
39997;DHT22;25688;52.338;21.072;2022-08-03T10:46:46;26.90;99.90
39997;DHT22;25688;52.338;21.072;2022-08-03T10:49:19;27.10;99.90
39997;DHT22;25688;52.338;21.072;2022-08-03T10:51:47;27.30;99.90
39997;DHT22;25688;52.338;21.072;2022-08-03T10:54:41;27.40;99.90
39997;DHT22;25688;52.338;21.072;2022-08-03T10:57:52;27.50;99.90
39997;DHT22;25688;52.338;21.072;2022-08-03T11:00:22;27.80;99.90
39997;DHT22;25688;52.338;21.072;2022-08-03T11:05:28;27.90;99.90
39997;DHT22;25688;52.338;21.072;2022-08-03T11:08:32;28.00;99.90
39997;DHT22;25688;52.338;21.072;2022-08-03T11:14:03;28.00;99.90
39997;DHT22;25688;52.338;21.072;2022-08-03T11:16:42;27.90;99.90
39997;DHT22;25688;52.338;21.072;2022-08-03T11:19:19;28.00;99.90
39997;DHT22;25688;52.338;21.072;2022-08-03T11:21:55;27.90;94.70
39997;DHT22;25688;52.338;21.072;2022-08-03T11:29:53;27.50;99.30
39997;DHT22;25688;52.338;21.072;2022-08-03T11:35:28;27.50;96.10
39997;DHT22;25688;52.338;21.072;2022-08-03T11:40:32;27.50;97.00
39997;DHT22;25688;52.338;21.072;2022-08-03T11:42:58;27.40;93.30
39997;DHT22;25688;52.338;21.072;2022-08-03T11:45:24;27.20;95.70
39997;DHT22;25688;52.338;21.072;2022-08-03T11:47:53;27.00;94.70
39997;DHT22;25688;52.338;21.072;2022-08-03T11:50:20;27.20;99.90
39997;DHT22;25688;52.338;21.072;2022-08-03T11:52:47;27.40;96.60
39997;DHT22;25688;52.338;21.072;2022-08-03T11:55:16;27.50;96.20
39997;DHT22;25688;52.338;21.072;2022-08-03T11:57:43;27.60;99.40
39997;DHT22;25688;52.338;21.072;2022-08-03T12:00:26;27.70;97.90
39997;DHT22;25688;52.338;21.072;2022-08-03T12:03:00;27.60;97.20
39997;DHT22;25688;52.338;21.072;2022-08-03T12:08:08;27.30;93.60
39997;DHT22;25688;52.338;21.072;2022-08-03T12:10:35;27.10;94.30
39997;DHT22;25688;52.338;21.072;2022-08-03T12:13:02;27.10;94.10
39997;DHT22;25688;52.338;21.072;2022-08-03T12:15:31;27.10;98.60
39997;DHT22;25688;52.338;21.072;2022-08-03T12:18:02;27.20;96.50
39997;DHT22;25688;52.338;21.072;2022-08-03T12:20:29;27.00;96.80
39997;DHT22;25688;52.338;21.072;2022-08-03T12:23:04;26.80;98.00
39997;DHT22;25688;52.338;21.072;2022-08-03T12:25:32;26.70;97.30
39997;DHT22;25688;52.338;21.072;2022-08-03T12:34:47;27.00;97.70
39997;DHT22;25688;52.338;21.072;2022-08-03T12:37:19;27.20;97.40
39997;DHT22;25688;52.338;21.072;2022-08-03T12:40:04;27.30;98.70
39997;DHT22;25688;52.338;21.072;2022-08-03T12:42:38;27.40;97.00
39997;DHT22;25688;52.338;21.072;2022-08-03T12:45:29;27.60;95.40
39997;DHT22;25688;52.338;21.072;2022-08-03T12:48:00;27.80;96.70
39997;DHT22;25688;52.338;21.072;2022-08-03T12:50:34;27.80;95.50
39997;DHT22;25688;52.338;21.072;2022-08-03T12:53:05;28.00;95.80
39997;DHT22;25688;52.338;21.072;2022-08-03T12:55:37;28.00;94.40
39997;DHT22;25688;52.338;21.072;2022-08-03T12:58:05;28.10;94.60
39997;DHT22;25688;52.338;21.072;2022-08-03T13:00:32;28.20;95.40
39997;DHT22;25688;52.338;21.072;2022-08-03T13:03:01;28.30;95.70
39997;DHT22;25688;52.338;21.072;2022-08-03T13:05:27;28.40;96.90
39997;DHT22;25688;52.338;21.072;2022-08-03T13:07:52;28.30;94.50
39997;DHT22;25688;52.338;21.072;2022-08-03T13:10:32;28.50;95.30
39997;DHT22;25688;52.338;21.072;2022-08-03T13:13:38;28.60;95.40
39997;DHT22;25688;52.338;21.072;2022-08-03T13:16:04;28.70;94.70
39997;DHT22;25688;52.338;21.072;2022-08-03T13:18:30;28.40;90.00
39997;DHT22;25688;52.338;21.072;2022-08-03T13:20:56;28.10;89.00
39997;DHT22;25688;52.338;21.072;2022-08-03T13:23:30;28.00;91.30
39997;DHT22;25688;52.338;21.072;2022-08-03T13:25:59;27.80;92.30
39997;DHT22;25688;52.338;21.072;2022-08-03T13:28:24;27.70;91.70
39997;DHT22;25688;52.338;21.072;2022-08-03T13:30:50;27.80;92.90
39997;DHT22;25688;52.338;21.072;2022-08-03T13:33:16;27.90;92.70
39997;DHT22;25688;52.338;21.072;2022-08-03T13:35:42;28.00;93.30
39997;DHT22;25688;52.338;21.072;2022-08-03T13:38:26;27.90;92.80
39997;DHT22;25688;52.338;21.072;2022-08-03T13:40:52;27.70;94.00
39997;DHT22;25688;52.338;21.072;2022-08-03T13:43:33;27.60;94.80
39997;DHT22;25688;52.338;21.072;2022-08-03T13:59:22;27.60;90.70
39997;DHT22;25688;52.338;21.072;2022-08-03T14:01:52;27.70;91.70
39997;DHT22;25688;52.338;21.072;2022-08-03T14:04:21;27.80;91.60
39997;DHT22;25688;52.338;21.072;2022-08-03T14:06:47;27.70;91.00
39997;DHT22;25688;52.338;21.072;2022-08-03T14:09:14;27.70;91.10
39997;DHT22;25688;52.338;21.072;2022-08-03T14:11:41;27.70;92.90
39997;DHT22;25688;52.338;21.072;2022-08-03T14:14:07;27.80;91.90
39997;DHT22;25688;52.338;21.072;2022-08-03T14:16:35;27.90;91.90
39997;DHT22;25688;52.338;21.072;2022-08-03T14:19:04;28.00;92.00
39997;DHT22;25688;52.338;21.072;2022-08-03T14:21:36;28.00;91.40
39997;DHT22;25688;52.338;21.072;2022-08-03T14:24:05;28.10;90.10
39997;DHT22;25688;52.338;21.072;2022-08-03T14:26:31;27.90;92.10
39997;DHT22;25688;52.338;21.072;2022-08-03T14:28:56;28.00;90.40
39997;DHT22;25688;52.338;21.072;2022-08-03T14:31:22;28.10;91.70
39997;DHT22;25688;52.338;21.072;2022-08-03T14:33:48;28.00;91.80
39997;DHT22;25688;52.338;21.072;2022-08-03T14:36:15;28.10;91.20
39997;DHT22;25688;52.338;21.072;2022-08-03T14:38:42;28.10;90.50
39997;DHT22;25688;52.338;21.072;2022-08-03T14:41:08;28.20;92.50
39997;DHT22;25688;52.338;21.072;2022-08-03T14:43:34;28.30;93.80
39997;DHT22;25688;52.338;21.072;2022-08-03T14:46:00;28.20;92.80
39997;DHT22;25688;52.338;21.072;2022-08-03T14:48:25;28.20;91.80
39997;DHT22;25688;52.338;21.072;2022-08-03T14:50:51;28.20;91.00
39997;DHT22;25688;52.338;21.072;2022-08-03T14:53:18;28.10;91.80
39997;DHT22;25688;52.338;21.072;2022-08-03T14:55:47;28.10;93.50
39997;DHT22;25688;52.338;21.072;2022-08-03T14:58:14;28.10;91.50
39997;DHT22;25688;52.338;21.072;2022-08-03T15:00:40;28.20;92.00
39997;DHT22;25688;52.338;21.072;2022-08-03T15:03:05;28.10;91.70
39997;DHT22;25688;52.338;21.072;2022-08-03T15:05:31;28.10;91.40
39997;DHT22;25688;52.338;21.072;2022-08-03T15:07:57;28.10;92.00
39997;DHT22;25688;52.338;21.072;2022-08-03T15:10:23;28.00;90.20
39997;DHT22;25688;52.338;21.072;2022-08-03T15:12:48;28.00;91.10
39997;DHT22;25688;52.338;21.072;2022-08-03T15:15:14;28.00;92.20
39997;DHT22;25688;52.338;21.072;2022-08-03T15:17:40;27.90;92.80
39997;DHT22;25688;52.338;21.072;2022-08-03T15:20:06;27.80;93.10
39997;DHT22;25688;52.338;21.072;2022-08-03T15:22:33;27.70;93.80
39997;DHT22;25688;52.338;21.072;2022-08-03T15:25:03;27.60;93.00
39997;DHT22;25688;52.338;21.072;2022-08-03T15:27:29;27.70;90.60
39997;DHT22;25688;52.338;21.072;2022-08-03T15:29:54;27.70;91.40
39997;DHT22;25688;52.338;21.072;2022-08-03T15:32:20;27.70;91.00
39997;DHT22;25688;52.338;21.072;2022-08-03T15:34:46;27.80;90.80
39997;DHT22;25688;52.338;21.072;2022-08-03T15:37:12;27.80;89.60
39997;DHT22;25688;52.338;21.072;2022-08-03T15:39:38;27.80;90.90
39997;DHT22;25688;52.338;21.072;2022-08-03T15:42:04;27.80;92.50
39997;DHT22;25688;52.338;21.072;2022-08-03T15:44:29;27.80;93.80
39997;DHT22;25688;52.338;21.072;2022-08-03T15:46:55;27.80;91.50
39997;DHT22;25688;52.338;21.072;2022-08-03T15:49:21;27.70;92.90
39997;DHT22;25688;52.338;21.072;2022-08-03T15:51:46;27.60;91.20
39997;DHT22;25688;52.338;21.072;2022-08-03T15:54:12;27.50;91.90
39997;DHT22;25688;52.338;21.072;2022-08-03T15:56:38;27.40;93.10
39997;DHT22;25688;52.338;21.072;2022-08-03T15:59:06;27.30;90.70
39997;DHT22;25688;52.338;21.072;2022-08-03T16:01:31;27.30;90.90
39997;DHT22;25688;52.338;21.072;2022-08-03T16:03:57;27.40;91.00
39997;DHT22;25688;52.338;21.072;2022-08-03T16:06:23;27.40;92.70
39997;DHT22;25688;52.338;21.072;2022-08-03T16:08:48;27.30;92.40
39997;DHT22;25688;52.338;21.072;2022-08-03T16:11:15;27.30;94.40
39997;DHT22;25688;52.338;21.072;2022-08-03T16:13:40;27.20;95.60
39997;DHT22;25688;52.338;21.072;2022-08-03T16:16:06;27.20;93.90
39997;DHT22;25688;52.338;21.072;2022-08-03T16:18:32;27.10;92.50
39997;DHT22;25688;52.338;21.072;2022-08-03T16:20:58;27.10;93.60
39997;DHT22;25688;52.338;21.072;2022-08-03T16:23:24;27.00;94.70
39997;DHT22;25688;52.338;21.072;2022-08-03T16:25:50;27.00;94.90
39997;DHT22;25688;52.338;21.072;2022-08-03T16:28:16;26.90;95.70
39997;DHT22;25688;52.338;21.072;2022-08-03T16:30:43;26.90;97.50
39997;DHT22;25688;52.338;21.072;2022-08-03T16:33:10;26.90;96.90
39997;DHT22;25688;52.338;21.072;2022-08-03T16:35:36;27.00;95.90
39997;DHT22;25688;52.338;21.072;2022-08-03T16:38:04;27.10;94.50
39997;DHT22;25688;52.338;21.072;2022-08-03T16:40:30;27.10;92.90
39997;DHT22;25688;52.338;21.072;2022-08-03T16:42:56;27.10;93.00